sensor_id;sensor_type;location;lat;lon;timestamp;P1;durP1;ratioP1;P2;durP2;ratioP2
3171;SDS011;1597;51.572;6.992;2022-08-19T00:01:41;7.20;;;6.60;;
3171;SDS011;1597;51.572;6.992;2022-08-19T00:04:10;7.70;;;7.03;;
3171;SDS011;1597;51.572;6.992;2022-08-19T00:06:39;6.50;;;6.00;;
3171;SDS011;1597;51.572;6.992;2022-08-19T00:09:08;7.40;;;6.70;;
3171;SDS011;1597;51.572;6.992;2022-08-19T00:11:37;8.63;;;6.73;;
3171;SDS011;1597;51.572;6.992;2022-08-19T00:14:04;7.17;;;6.57;;
3171;SDS011;1597;51.572;6.992;2022-08-19T00:16:34;7.10;;;6.50;;
3171;SDS011;1597;51.572;6.992;2022-08-19T00:19:02;9.47;;;6.53;;
3171;SDS011;1597;51.572;6.992;2022-08-19T00:21:29;8.73;;;6.90;;
3171;SDS011;1597;51.572;6.992;2022-08-19T00:23:55;7.43;;;6.83;;
3171;SDS011;1597;51.572;6.992;2022-08-19T00:26:23;8.50;;;6.20;;
3171;SDS011;1597;51.572;6.992;2022-08-19T00:28:51;7.17;;;6.57;;
3171;SDS011;1597;51.572;6.992;2022-08-19T00:31:16;7.37;;;6.53;;
3171;SDS011;1597;51.572;6.992;2022-08-19T00:33:43;8.63;;;7.20;;
3171;SDS011;1597;51.572;6.992;2022-08-19T00:36:09;7.53;;;6.90;;
3171;SDS011;1597;51.572;6.992;2022-08-19T00:38:35;6.77;;;6.10;;
3171;SDS011;1597;51.572;6.992;2022-08-19T00:41:05;7.03;;;6.43;;
3171;SDS011;1597;51.572;6.992;2022-08-19T00:43:32;7.40;;;6.70;;
3171;SDS011;1597;51.572;6.992;2022-08-19T00:45:58;7.07;;;6.37;;
3171;SDS011;1597;51.572;6.992;2022-08-19T00:48:24;6.40;;;5.80;;
3171;SDS011;1597;51.572;6.992;2022-08-19T00:50:50;6.87;;;6.17;;
3171;SDS011;1597;51.572;6.992;2022-08-19T00:53:19;6.20;;;5.70;;
3171;SDS011;1597;51.572;6.992;2022-08-19T00:55:51;7.53;;;6.70;;
3171;SDS011;1597;51.572;6.992;2022-08-19T00:58:21;9.30;;;8.03;;
3171;SDS011;1597;51.572;6.992;2022-08-19T01:00:53;7.60;;;6.90;;
3171;SDS011;1597;51.572;6.992;2022-08-19T01:03:19;7.07;;;6.37;;
3171;SDS011;1597;51.572;6.992;2022-08-19T01:05:47;7.70;;;7.10;;
3171;SDS011;1597;51.572;6.992;2022-08-19T01:08:15;7.80;;;7.00;;
3171;SDS011;1597;51.572;6.992;2022-08-19T01:10:45;7.07;;;6.50;;
3171;SDS011;1597;51.572;6.992;2022-08-19T01:13:19;9.00;;;7.10;;
3171;SDS011;1597;51.572;6.992;2022-08-19T01:15:52;10.10;;;7.00;;
3171;SDS011;1597;51.572;6.992;2022-08-19T01:18:25;7.10;;;6.40;;
3171;SDS011;1597;51.572;6.992;2022-08-19T01:20:54;7.67;;;6.60;;
3171;SDS011;1597;51.572;6.992;2022-08-19T01:23:24;7.10;;;6.40;;
3171;SDS011;1597;51.572;6.992;2022-08-19T01:26:07;7.83;;;7.03;;
3171;SDS011;1597;51.572;6.992;2022-08-19T01:28:37;8.63;;;7.50;;
3171;SDS011;1597;51.572;6.992;2022-08-19T01:31:03;7.03;;;6.33;;
3171;SDS011;1597;51.572;6.992;2022-08-19T01:33:31;7.47;;;6.77;;
3171;SDS011;1597;51.572;6.992;2022-08-19T01:36:10;6.90;;;6.30;;
3171;SDS011;1597;51.572;6.992;2022-08-19T01:38:43;7.60;;;6.70;;
3171;SDS011;1597;51.572;6.992;2022-08-19T01:41:10;7.10;;;6.50;;
3171;SDS011;1597;51.572;6.992;2022-08-19T01:43:37;7.53;;;6.80;;
3171;SDS011;1597;51.572;6.992;2022-08-19T01:46:04;8.10;;;6.93;;
3171;SDS011;1597;51.572;6.992;2022-08-19T01:48:34;9.47;;;6.93;;
3171;SDS011;1597;51.572;6.992;2022-08-19T01:51:06;7.70;;;6.90;;
3171;SDS011;1597;51.572;6.992;2022-08-19T01:53:34;6.97;;;6.27;;
3171;SDS011;1597;51.572;6.992;2022-08-19T01:56:02;7.53;;;5.80;;
3171;SDS011;1597;51.572;6.992;2022-08-19T01:58:34;7.33;;;6.63;;
3171;SDS011;1597;51.572;6.992;2022-08-19T02:01:07;5.60;;;5.20;;
3171;SDS011;1597;51.572;6.992;2022-08-19T02:03:33;7.30;;;6.60;;
3171;SDS011;1597;51.572;6.992;2022-08-19T02:06:00;7.30;;;6.60;;
3171;SDS011;1597;51.572;6.992;2022-08-19T02:08:30;8.17;;;7.37;;
3171;SDS011;1597;51.572;6.992;2022-08-19T02:11:00;7.10;;;6.50;;
3171;SDS011;1597;51.572;6.992;2022-08-19T02:13:26;9.60;;;7.50;;
3171;SDS011;1597;51.572;6.992;2022-08-19T02:15:52;8.53;;;7.60;;
3171;SDS011;1597;51.572;6.992;2022-08-19T02:18:18;8.60;;;7.50;;
3171;SDS011;1597;51.572;6.992;2022-08-19T02:20:44;8.20;;;7.50;;
3171;SDS011;1597;51.572;6.992;2022-08-19T02:23:12;10.03;;;8.00;;
3171;SDS011;1597;51.572;6.992;2022-08-19T02:25:40;7.43;;;6.90;;
3171;SDS011;1597;51.572;6.992;2022-08-19T02:28:09;9.40;;;8.60;;
3171;SDS011;1597;51.572;6.992;2022-08-19T02:30:36;8.13;;;7.40;;
3171;SDS011;1597;51.572;6.992;2022-08-19T02:33:03;8.90;;;8.10;;
3171;SDS011;1597;51.572;6.992;2022-08-19T02:35:30;10.27;;;8.10;;
3171;SDS011;1597;51.572;6.992;2022-08-19T02:37:56;7.97;;;7.17;;
3171;SDS011;1597;51.572;6.992;2022-08-19T02:40:47;7.87;;;7.07;;
3171;SDS011;1597;51.572;6.992;2022-08-19T02:43:25;8.57;;;7.83;;
3171;SDS011;1597;51.572;6.992;2022-08-19T02:45:53;8.37;;;7.67;;
3171;SDS011;1597;51.572;6.992;2022-08-19T02:48:20;8.60;;;7.90;;
3171;SDS011;1597;51.572;6.992;2022-08-19T02:50:48;8.93;;;7.83;;
3171;SDS011;1597;51.572;6.992;2022-08-19T02:53:20;9.90;;;9.00;;
3171;SDS011;1597;51.572;6.992;2022-08-19T02:55:49;10.33;;;8.30;;
3171;SDS011;1597;51.572;6.992;2022-08-19T02:58:16;10.33;;;9.33;;
3171;SDS011;1597;51.572;6.992;2022-08-19T03:00:43;9.77;;;8.27;;
3171;SDS011;1597;51.572;6.992;2022-08-19T03:03:15;9.90;;;9.00;;
3171;SDS011;1597;51.572;6.992;2022-08-19T03:05:42;11.23;;;10.23;;
3171;SDS011;1597;51.572;6.992;2022-08-19T03:08:09;11.53;;;9.80;;
3171;SDS011;1597;51.572;6.992;2022-08-19T03:10:46;10.23;;;9.17;;
3171;SDS011;1597;51.572;6.992;2022-08-19T03:13:14;9.60;;;8.50;;
3171;SDS011;1597;51.572;6.992;2022-08-19T03:15:42;9.77;;;8.80;;
3171;SDS011;1597;51.572;6.992;2022-08-19T03:18:11;9.13;;;8.23;;
3171;SDS011;1597;51.572;6.992;2022-08-19T03:20:45;9.30;;;7.30;;
3171;SDS011;1597;51.572;6.992;2022-08-19T03:23:14;9.10;;;8.33;;
3171;SDS011;1597;51.572;6.992;2022-08-19T03:25:42;9.67;;;8.00;;
3171;SDS011;1597;51.572;6.992;2022-08-19T03:28:12;7.80;;;7.03;;
3171;SDS011;1597;51.572;6.992;2022-08-19T03:30:39;9.50;;;7.17;;
3171;SDS011;1597;51.572;6.992;2022-08-19T03:33:07;7.90;;;7.10;;
3171;SDS011;1597;51.572;6.992;2022-08-19T03:35:35;8.20;;;7.40;;
3171;SDS011;1597;51.572;6.992;2022-08-19T03:38:02;7.90;;;7.20;;
3171;SDS011;1597;51.572;6.992;2022-08-19T03:40:31;8.50;;;7.70;;
3171;SDS011;1597;51.572;6.992;2022-08-19T03:42:59;9.10;;;7.97;;
3171;SDS011;1597;51.572;6.992;2022-08-19T03:45:26;8.17;;;7.37;;
3171;SDS011;1597;51.572;6.992;2022-08-19T03:47:53;8.73;;;7.87;;
3171;SDS011;1597;51.572;6.992;2022-08-19T03:50:20;10.60;;;8.17;;
3171;SDS011;1597;51.572;6.992;2022-08-19T03:52:50;8.77;;;7.97;;
3171;SDS011;1597;51.572;6.992;2022-08-19T03:55:17;8.47;;;7.67;;
3171;SDS011;1597;51.572;6.992;2022-08-19T03:57:43;9.63;;;8.57;;
3171;SDS011;1597;51.572;6.992;2022-08-19T04:00:11;11.00;;;8.20;;
3171;SDS011;1597;51.572;6.992;2022-08-19T04:02:38;8.90;;;8.00;;
3171;SDS011;1597;51.572;6.992;2022-08-19T04:05:06;10.40;;;8.33;;
3171;SDS011;1597;51.572;6.992;2022-08-19T04:07:34;8.53;;;7.57;;
3171;SDS011;1597;51.572;6.992;2022-08-19T04:10:00;11.20;;;8.43;;
3171;SDS011;1597;51.572;6.992;2022-08-19T04:12:26;11.40;;;8.50;;
3171;SDS011;1597;51.572;6.992;2022-08-19T04:14:52;8.73;;;7.90;;
3171;SDS011;1597;51.572;6.992;2022-08-19T04:17:18;9.57;;;8.30;;
3171;SDS011;1597;51.572;6.992;2022-08-19T04:19:44;8.07;;;7.30;;
3171;SDS011;1597;51.572;6.992;2022-08-19T04:22:10;8.80;;;7.90;;
3171;SDS011;1597;51.572;6.992;2022-08-19T04:24:37;9.90;;;9.00;;
3171;SDS011;1597;51.572;6.992;2022-08-19T04:27:05;9.63;;;8.63;;
3171;SDS011;1597;51.572;6.992;2022-08-19T04:29:31;8.80;;;8.00;;
3171;SDS011;1597;51.572;6.992;2022-08-19T04:31:59;9.90;;;8.43;;
3171;SDS011;1597;51.572;6.992;2022-08-19T04:34:26;12.53;;;9.13;;
3171;SDS011;1597;51.572;6.992;2022-08-19T04:36:56;10.50;;;9.50;;
3171;SDS011;1597;51.572;6.992;2022-08-19T04:39:26;13.97;;;11.20;;
3171;SDS011;1597;51.572;6.992;2022-08-19T04:42:14;13.60;;;11.47;;
3171;SDS011;1597;51.572;6.992;2022-08-19T04:45:02;11.87;;;10.10;;
3171;SDS011;1597;51.572;6.992;2022-08-19T04:47:31;11.93;;;10.00;;
3171;SDS011;1597;51.572;6.992;2022-08-19T04:49:58;11.90;;;10.70;;
3171;SDS011;1597;51.572;6.992;2022-08-19T04:52:24;12.13;;;10.93;;
3171;SDS011;1597;51.572;6.992;2022-08-19T04:54:51;10.47;;;9.50;;
3171;SDS011;1597;51.572;6.992;2022-08-19T04:57:17;11.77;;;10.67;;
3171;SDS011;1597;51.572;6.992;2022-08-19T04:59:43;11.13;;;9.67;;
3171;SDS011;1597;51.572;6.992;2022-08-19T05:02:09;11.80;;;10.10;;
3171;SDS011;1597;51.572;6.992;2022-08-19T05:04:36;11.90;;;10.70;;
3171;SDS011;1597;51.572;6.992;2022-08-19T05:07:04;12.70;;;10.90;;
3171;SDS011;1597;51.572;6.992;2022-08-19T05:09:30;11.47;;;10.37;;
3171;SDS011;1597;51.572;6.992;2022-08-19T05:11:57;11.53;;;10.33;;
3171;SDS011;1597;51.572;6.992;2022-08-19T05:14:23;14.27;;;10.57;;
3171;SDS011;1597;51.572;6.992;2022-08-19T05:16:48;13.17;;;10.00;;
3171;SDS011;1597;51.572;6.992;2022-08-19T05:19:17;13.40;;;11.80;;
3171;SDS011;1597;51.572;6.992;2022-08-19T05:22:01;15.83;;;11.90;;
3171;SDS011;1597;51.572;6.992;2022-08-19T05:24:46;100.03;;;34.77;;
3171;SDS011;1597;51.572;6.992;2022-08-19T05:27:14;16.67;;;13.70;;
3171;SDS011;1597;51.572;6.992;2022-08-19T05:29:40;15.27;;;13.77;;
3171;SDS011;1597;51.572;6.992;2022-08-19T05:32:05;13.83;;;12.37;;
3171;SDS011;1597;51.572;6.992;2022-08-19T05:34:35;13.73;;;12.33;;
3171;SDS011;1597;51.572;6.992;2022-08-19T05:37:03;14.67;;;12.83;;
3171;SDS011;1597;51.572;6.992;2022-08-19T05:39:32;14.83;;;13.13;;
3171;SDS011;1597;51.572;6.992;2022-08-19T05:42:03;14.40;;;12.13;;
3171;SDS011;1597;51.572;6.992;2022-08-19T05:44:33;15.33;;;13.83;;
3171;SDS011;1597;51.572;6.992;2022-08-19T05:47:08;15.10;;;13.57;;
3171;SDS011;1597;51.572;6.992;2022-08-19T05:49:34;20.80;;;14.93;;
3171;SDS011;1597;51.572;6.992;2022-08-19T05:52:03;16.17;;;14.43;;
3171;SDS011;1597;51.572;6.992;2022-08-19T05:54:31;16.50;;;14.80;;
3171;SDS011;1597;51.572;6.992;2022-08-19T05:56:57;19.67;;;13.73;;
3171;SDS011;1597;51.572;6.992;2022-08-19T05:59:25;18.80;;;16.90;;
3171;SDS011;1597;51.572;6.992;2022-08-19T06:01:51;19.23;;;17.13;;
3171;SDS011;1597;51.572;6.992;2022-08-19T06:04:21;24.63;;;17.63;;
3171;SDS011;1597;51.572;6.992;2022-08-19T06:06:48;19.73;;;17.67;;
3171;SDS011;1597;51.572;6.992;2022-08-19T06:09:16;23.60;;;18.83;;
3171;SDS011;1597;51.572;6.992;2022-08-19T06:11:45;20.90;;;18.63;;
3171;SDS011;1597;51.572;6.992;2022-08-19T06:14:20;19.30;;;15.50;;
3171;SDS011;1597;51.572;6.992;2022-08-19T06:16:49;20.63;;;17.77;;
3171;SDS011;1597;51.572;6.992;2022-08-19T06:19:17;17.33;;;15.57;;
3171;SDS011;1597;51.572;6.992;2022-08-19T06:21:46;21.70;;;17.07;;
3171;SDS011;1597;51.572;6.992;2022-08-19T06:24:16;26.60;;;18.80;;
3171;SDS011;1597;51.572;6.992;2022-08-19T06:26:47;18.33;;;16.50;;
3171;SDS011;1597;51.572;6.992;2022-08-19T06:29:15;22.30;;;17.47;;
3171;SDS011;1597;51.572;6.992;2022-08-19T06:31:44;22.47;;;16.90;;
3171;SDS011;1597;51.572;6.992;2022-08-19T06:34:14;22.13;;;19.67;;
3171;SDS011;1597;51.572;6.992;2022-08-19T06:36:42;24.17;;;19.07;;
3171;SDS011;1597;51.572;6.992;2022-08-19T06:39:13;23.43;;;17.83;;
3171;SDS011;1597;51.572;6.992;2022-08-19T06:41:47;24.37;;;19.63;;
3171;SDS011;1597;51.572;6.992;2022-08-19T06:44:15;28.83;;;20.00;;
3171;SDS011;1597;51.572;6.992;2022-08-19T06:46:43;22.07;;;18.47;;
3171;SDS011;1597;51.572;6.992;2022-08-19T06:49:09;22.93;;;19.27;;
3171;SDS011;1597;51.572;6.992;2022-08-19T06:51:38;25.27;;;18.67;;
3171;SDS011;1597;51.572;6.992;2022-08-19T06:54:07;21.43;;;17.80;;
3171;SDS011;1597;51.572;6.992;2022-08-19T06:56:33;22.83;;;20.37;;
3171;SDS011;1597;51.572;6.992;2022-08-19T06:59:03;22.33;;;19.03;;
3171;SDS011;1597;51.572;6.992;2022-08-19T07:01:38;28.13;;;20.20;;
3171;SDS011;1597;51.572;6.992;2022-08-19T07:04:10;22.63;;;19.40;;
3171;SDS011;1597;51.572;6.992;2022-08-19T07:06:37;21.90;;;17.90;;
3171;SDS011;1597;51.572;6.992;2022-08-19T07:09:04;21.10;;;18.73;;
3171;SDS011;1597;51.572;6.992;2022-08-19T07:11:34;21.60;;;18.13;;
3171;SDS011;1597;51.572;6.992;2022-08-19T07:14:00;18.90;;;16.30;;
3171;SDS011;1597;51.572;6.992;2022-08-19T07:16:27;21.60;;;17.37;;
3171;SDS011;1597;51.572;6.992;2022-08-19T07:18:54;25.03;;;19.53;;
3171;SDS011;1597;51.572;6.992;2022-08-19T07:21:25;25.90;;;18.03;;
3171;SDS011;1597;51.572;6.992;2022-08-19T07:23:53;18.60;;;16.40;;
3171;SDS011;1597;51.572;6.992;2022-08-19T07:26:22;22.33;;;17.83;;
3171;SDS011;1597;51.572;6.992;2022-08-19T07:28:56;19.67;;;17.50;;
3171;SDS011;1597;51.572;6.992;2022-08-19T07:31:27;27.77;;;19.37;;
3171;SDS011;1597;51.572;6.992;2022-08-19T07:33:54;20.13;;;16.47;;
3171;SDS011;1597;51.572;6.992;2022-08-19T07:36:23;18.90;;;16.50;;
3171;SDS011;1597;51.572;6.992;2022-08-19T07:38:56;24.40;;;17.50;;
3171;SDS011;1597;51.572;6.992;2022-08-19T07:41:22;25.43;;;22.83;;
3171;SDS011;1597;51.572;6.992;2022-08-19T07:43:50;24.60;;;19.70;;
3171;SDS011;1597;51.572;6.992;2022-08-19T07:46:18;18.33;;;16.30;;
3171;SDS011;1597;51.572;6.992;2022-08-19T07:48:45;22.03;;;16.67;;
3171;SDS011;1597;51.572;6.992;2022-08-19T07:51:17;19.20;;;17.20;;
3171;SDS011;1597;51.572;6.992;2022-08-19T07:53:46;26.27;;;19.83;;
3171;SDS011;1597;51.572;6.992;2022-08-19T07:56:14;23.10;;;18.50;;
3171;SDS011;1597;51.572;6.992;2022-08-19T07:58:42;23.53;;;18.80;;
3171;SDS011;1597;51.572;6.992;2022-08-19T08:01:11;24.73;;;19.93;;
3171;SDS011;1597;51.572;6.992;2022-08-19T08:03:41;23.80;;;19.77;;
3171;SDS011;1597;51.572;6.992;2022-08-19T08:06:26;29.57;;;21.07;;
3171;SDS011;1597;51.572;6.992;2022-08-19T08:09:11;23.90;;;21.30;;
3171;SDS011;1597;51.572;6.992;2022-08-19T08:11:54;63.97;;;38.33;;
3171;SDS011;1597;51.572;6.992;2022-08-19T08:14:26;38.27;;;28.03;;
3171;SDS011;1597;51.572;6.992;2022-08-19T08:17:00;29.10;;;22.20;;
3171;SDS011;1597;51.572;6.992;2022-08-19T08:19:26;25.93;;;22.03;;
3171;SDS011;1597;51.572;6.992;2022-08-19T08:21:54;26.57;;;23.40;;
3171;SDS011;1597;51.572;6.992;2022-08-19T08:24:23;27.57;;;23.33;;
3171;SDS011;1597;51.572;6.992;2022-08-19T08:26:51;31.60;;;22.50;;
3171;SDS011;1597;51.572;6.992;2022-08-19T08:29:17;28.17;;;22.23;;
3171;SDS011;1597;51.572;6.992;2022-08-19T08:31:45;28.77;;;21.30;;
3171;SDS011;1597;51.572;6.992;2022-08-19T08:34:13;22.07;;;19.70;;
3171;SDS011;1597;51.572;6.992;2022-08-19T08:36:41;25.33;;;22.57;;
3171;SDS011;1597;51.572;6.992;2022-08-19T08:39:10;29.17;;;23.17;;
3171;SDS011;1597;51.572;6.992;2022-08-19T08:41:49;26.20;;;23.40;;
3171;SDS011;1597;51.572;6.992;2022-08-19T08:44:31;26.37;;;20.90;;
3171;SDS011;1597;51.572;6.992;2022-08-19T08:47:20;24.97;;;22.10;;
3171;SDS011;1597;51.572;6.992;2022-08-19T08:49:51;24.17;;;20.73;;
3171;SDS011;1597;51.572;6.992;2022-08-19T08:52:25;30.77;;;21.93;;
3171;SDS011;1597;51.572;6.992;2022-08-19T08:54:55;29.30;;;21.27;;
3171;SDS011;1597;51.572;6.992;2022-08-19T09:00:24;24.60;;;21.00;;
3171;SDS011;1597;51.572;6.992;2022-08-19T09:02:59;28.93;;;25.60;;
3171;SDS011;1597;51.572;6.992;2022-08-19T09:05:34;22.67;;;20.20;;
3171;SDS011;1597;51.572;6.992;2022-08-19T09:11:09;25.30;;;21.70;;
3171;SDS011;1597;51.572;6.992;2022-08-19T09:13:59;23.40;;;21.00;;
3171;SDS011;1597;51.572;6.992;2022-08-19T09:16:46;27.57;;;22.33;;
3171;SDS011;1597;51.572;6.992;2022-08-19T09:19:13;26.20;;;19.67;;
3171;SDS011;1597;51.572;6.992;2022-08-19T09:21:39;23.37;;;19.20;;
3171;SDS011;1597;51.572;6.992;2022-08-19T09:24:05;22.07;;;19.70;;
3171;SDS011;1597;51.572;6.992;2022-08-19T09:26:31;27.93;;;21.80;;
3171;SDS011;1597;51.572;6.992;2022-08-19T09:28:58;27.80;;;21.80;;
3171;SDS011;1597;51.572;6.992;2022-08-19T09:31:26;32.40;;;21.63;;
3171;SDS011;1597;51.572;6.992;2022-08-19T09:33:59;27.13;;;20.73;;
3171;SDS011;1597;51.572;6.992;2022-08-19T09:36:26;17.83;;;15.93;;
3171;SDS011;1597;51.572;6.992;2022-08-19T09:38:58;17.97;;;15.50;;
3171;SDS011;1597;51.572;6.992;2022-08-19T09:41:26;20.60;;;15.90;;
3171;SDS011;1597;51.572;6.992;2022-08-19T09:43:53;15.27;;;13.77;;
3171;SDS011;1597;51.572;6.992;2022-08-19T09:46:21;17.23;;;15.47;;
3171;SDS011;1597;51.572;6.992;2022-08-19T09:48:50;15.57;;;14.00;;
3171;SDS011;1597;51.572;6.992;2022-08-19T09:51:18;18.43;;;15.93;;
3171;SDS011;1597;51.572;6.992;2022-08-19T09:53:48;18.50;;;15.50;;
3171;SDS011;1597;51.572;6.992;2022-08-19T09:56:15;18.60;;;15.93;;
3171;SDS011;1597;51.572;6.992;2022-08-19T09:58:43;18.03;;;15.00;;
3171;SDS011;1597;51.572;6.992;2022-08-19T10:01:15;22.27;;;19.87;;
3171;SDS011;1597;51.572;6.992;2022-08-19T10:03:47;21.23;;;18.47;;
3171;SDS011;1597;51.572;6.992;2022-08-19T10:06:17;23.67;;;20.77;;
3171;SDS011;1597;51.572;6.992;2022-08-19T10:08:44;19.83;;;17.73;;
3171;SDS011;1597;51.572;6.992;2022-08-19T10:11:11;18.53;;;16.70;;
3171;SDS011;1597;51.572;6.992;2022-08-19T10:13:39;19.47;;;17.37;;
3171;SDS011;1597;51.572;6.992;2022-08-19T10:16:07;20.93;;;18.43;;
3171;SDS011;1597;51.572;6.992;2022-08-19T10:18:37;22.50;;;20.20;;
3171;SDS011;1597;51.572;6.992;2022-08-19T10:21:05;20.67;;;18.60;;
3171;SDS011;1597;51.572;6.992;2022-08-19T10:23:41;22.60;;;20.20;;
3171;SDS011;1597;51.572;6.992;2022-08-19T10:26:12;25.30;;;20.47;;
3171;SDS011;1597;51.572;6.992;2022-08-19T10:28:45;23.10;;;19.03;;
3171;SDS011;1597;51.572;6.992;2022-08-19T10:31:12;24.00;;;19.77;;
3171;SDS011;1597;51.572;6.992;2022-08-19T10:33:45;21.87;;;19.57;;
3171;SDS011;1597;51.572;6.992;2022-08-19T10:36:15;20.53;;;18.37;;
3171;SDS011;1597;51.572;6.992;2022-08-19T10:38:44;24.70;;;18.17;;
3171;SDS011;1597;51.572;6.992;2022-08-19T10:41:15;22.30;;;20.00;;
3171;SDS011;1597;51.572;6.992;2022-08-19T10:43:51;21.83;;;19.33;;
3171;SDS011;1597;51.572;6.992;2022-08-19T10:46:19;23.17;;;19.27;;
3171;SDS011;1597;51.572;6.992;2022-08-19T10:48:48;22.93;;;19.23;;
3171;SDS011;1597;51.572;6.992;2022-08-19T10:51:14;30.87;;;21.73;;
3171;SDS011;1597;51.572;6.992;2022-08-19T10:53:59;24.33;;;20.27;;
3171;SDS011;1597;51.572;6.992;2022-08-19T10:56:26;21.37;;;19.03;;
3171;SDS011;1597;51.572;6.992;2022-08-19T10:59:12;24.97;;;18.97;;
3171;SDS011;1597;51.572;6.992;2022-08-19T11:01:39;21.17;;;18.97;;
3171;SDS011;1597;51.572;6.992;2022-08-19T11:04:08;21.53;;;19.23;;
3171;SDS011;1597;51.572;6.992;2022-08-19T11:06:38;23.30;;;20.90;;
3171;SDS011;1597;51.572;6.992;2022-08-19T11:09:08;25.00;;;20.77;;
3171;SDS011;1597;51.572;6.992;2022-08-19T11:11:36;22.97;;;20.47;;
3171;SDS011;1597;51.572;6.992;2022-08-19T11:14:13;24.73;;;19.00;;
3171;SDS011;1597;51.572;6.992;2022-08-19T11:16:43;20.93;;;17.90;;
3171;SDS011;1597;51.572;6.992;2022-08-19T11:19:09;31.90;;;18.90;;
3171;SDS011;1597;51.572;6.992;2022-08-19T11:21:41;31.90;;;19.13;;
3171;SDS011;1597;51.572;6.992;2022-08-19T11:24:10;38.53;;;18.63;;
3171;SDS011;1597;51.572;6.992;2022-08-19T11:26:42;21.00;;;18.80;;
3171;SDS011;1597;51.572;6.992;2022-08-19T11:29:09;24.40;;;21.30;;
3171;SDS011;1597;51.572;6.992;2022-08-19T11:31:39;20.60;;;18.60;;
3171;SDS011;1597;51.572;6.992;2022-08-19T11:34:08;20.93;;;18.87;;
3171;SDS011;1597;51.572;6.992;2022-08-19T11:36:38;21.10;;;18.90;;
3171;SDS011;1597;51.572;6.992;2022-08-19T11:39:10;18.60;;;16.80;;
3171;SDS011;1597;51.572;6.992;2022-08-19T11:41:38;21.00;;;16.47;;
3171;SDS011;1597;51.572;6.992;2022-08-19T11:44:04;25.97;;;17.10;;
3171;SDS011;1597;51.572;6.992;2022-08-19T11:46:32;18.70;;;16.90;;
3171;SDS011;1597;51.572;6.992;2022-08-19T11:49:00;20.43;;;18.20;;
3171;SDS011;1597;51.572;6.992;2022-08-19T11:51:30;17.93;;;16.03;;
3171;SDS011;1597;51.572;6.992;2022-08-19T11:53:57;19.40;;;17.10;;
3171;SDS011;1597;51.572;6.992;2022-08-19T11:56:25;17.47;;;15.63;;
3171;SDS011;1597;51.572;6.992;2022-08-19T11:58:53;16.93;;;15.23;;
3171;SDS011;1597;51.572;6.992;2022-08-19T12:01:22;14.80;;;13.50;;
3171;SDS011;1597;51.572;6.992;2022-08-19T12:03:51;16.13;;;14.47;;
3171;SDS011;1597;51.572;6.992;2022-08-19T12:06:23;20.80;;;14.70;;
3171;SDS011;1597;51.572;6.992;2022-08-19T12:08:54;15.73;;;14.30;;
3171;SDS011;1597;51.572;6.992;2022-08-19T12:11:22;14.30;;;12.80;;
3171;SDS011;1597;51.572;6.992;2022-08-19T12:13:49;10.73;;;9.63;;
3171;SDS011;1597;51.572;6.992;2022-08-19T12:16:23;12.37;;;11.20;;
3171;SDS011;1597;51.572;6.992;2022-08-19T12:18:53;15.13;;;13.73;;
3171;SDS011;1597;51.572;6.992;2022-08-19T12:21:22;20.63;;;15.43;;
3171;SDS011;1597;51.572;6.992;2022-08-19T12:23:53;13.43;;;12.23;;
3171;SDS011;1597;51.572;6.992;2022-08-19T12:26:21;14.63;;;13.23;;
3171;SDS011;1597;51.572;6.992;2022-08-19T12:28:49;19.60;;;13.40;;
3171;SDS011;1597;51.572;6.992;2022-08-19T12:31:15;13.27;;;12.07;;
3171;SDS011;1597;51.572;6.992;2022-08-19T12:33:42;12.73;;;11.50;;
3171;SDS011;1597;51.572;6.992;2022-08-19T12:36:09;13.50;;;11.93;;
3171;SDS011;1597;51.572;6.992;2022-08-19T12:38:38;14.60;;;11.10;;
3171;SDS011;1597;51.572;6.992;2022-08-19T12:41:05;14.00;;;10.87;;
3171;SDS011;1597;51.572;6.992;2022-08-19T12:43:33;10.50;;;9.17;;
3171;SDS011;1597;51.572;6.992;2022-08-19T12:46:08;10.33;;;9.40;;
3171;SDS011;1597;51.572;6.992;2022-08-19T12:48:35;16.10;;;9.97;;
3171;SDS011;1597;51.572;6.992;2022-08-19T12:51:08;9.43;;;8.63;;
3171;SDS011;1597;51.572;6.992;2022-08-19T12:53:37;11.83;;;10.50;;
3171;SDS011;1597;51.572;6.992;2022-08-19T12:56:03;12.43;;;11.23;;
3171;SDS011;1597;51.572;6.992;2022-08-19T12:58:30;9.67;;;8.63;;
3171;SDS011;1597;51.572;6.992;2022-08-19T13:00:59;9.90;;;9.00;;
3171;SDS011;1597;51.572;6.992;2022-08-19T13:03:32;9.50;;;8.67;;
3171;SDS011;1597;51.572;6.992;2022-08-19T13:05:58;11.17;;;9.03;;
3171;SDS011;1597;51.572;6.992;2022-08-19T13:08:24;10.70;;;9.60;;
3171;SDS011;1597;51.572;6.992;2022-08-19T13:10:49;11.03;;;8.40;;
3171;SDS011;1597;51.572;6.992;2022-08-19T13:13:15;7.60;;;6.90;;
3171;SDS011;1597;51.572;6.992;2022-08-19T13:15:41;8.23;;;7.40;;
3171;SDS011;1597;51.572;6.992;2022-08-19T13:18:14;7.40;;;6.67;;
3171;SDS011;1597;51.572;6.992;2022-08-19T13:20:41;8.00;;;7.30;;
3171;SDS011;1597;51.572;6.992;2022-08-19T13:23:07;8.10;;;7.30;;
3171;SDS011;1597;51.572;6.992;2022-08-19T13:25:34;9.53;;;8.70;;
3171;SDS011;1597;51.572;6.992;2022-08-19T13:28:01;10.80;;;9.10;;
3171;SDS011;1597;51.572;6.992;2022-08-19T13:30:28;13.83;;;12.50;;
3171;SDS011;1597;51.572;6.992;2022-08-19T13:33:12;11.30;;;10.07;;
3171;SDS011;1597;51.572;6.992;2022-08-19T13:35:45;8.40;;;7.60;;
3171;SDS011;1597;51.572;6.992;2022-08-19T13:38:21;7.87;;;7.17;;
3171;SDS011;1597;51.572;6.992;2022-08-19T13:40:49;7.13;;;6.40;;
3171;SDS011;1597;51.572;6.992;2022-08-19T13:43:18;7.60;;;6.90;;
3171;SDS011;1597;51.572;6.992;2022-08-19T13:45:51;7.67;;;6.83;;
3171;SDS011;1597;51.572;6.992;2022-08-19T13:48:21;7.60;;;6.83;;
3171;SDS011;1597;51.572;6.992;2022-08-19T13:50:48;7.30;;;6.60;;
3171;SDS011;1597;51.572;6.992;2022-08-19T13:53:14;8.47;;;7.67;;
3171;SDS011;1597;51.572;6.992;2022-08-19T13:55:42;8.80;;;8.00;;
3171;SDS011;1597;51.572;6.992;2022-08-19T13:58:09;9.30;;;8.40;;
3171;SDS011;1597;51.572;6.992;2022-08-19T14:00:38;8.60;;;7.77;;
3171;SDS011;1597;51.572;6.992;2022-08-19T14:03:08;10.83;;;9.97;;
3171;SDS011;1597;51.572;6.992;2022-08-19T14:05:34;9.40;;;7.70;;
3171;SDS011;1597;51.572;6.992;2022-08-19T14:08:01;10.17;;;8.30;;
3171;SDS011;1597;51.572;6.992;2022-08-19T14:10:27;10.77;;;7.70;;
3171;SDS011;1597;51.572;6.992;2022-08-19T14:12:55;8.37;;;7.57;;
3171;SDS011;1597;51.572;6.992;2022-08-19T14:15:23;10.07;;;9.07;;
3171;SDS011;1597;51.572;6.992;2022-08-19T14:17:51;10.67;;;9.77;;
3171;SDS011;1597;51.572;6.992;2022-08-19T14:20:17;10.80;;;9.70;;
3171;SDS011;1597;51.572;6.992;2022-08-19T14:22:43;10.67;;;9.67;;
3171;SDS011;1597;51.572;6.992;2022-08-19T14:25:12;9.23;;;8.50;;
3171;SDS011;1597;51.572;6.992;2022-08-19T14:27:41;10.73;;;9.77;;
3171;SDS011;1597;51.572;6.992;2022-08-19T14:30:08;11.57;;;10.53;;
3171;SDS011;1597;51.572;6.992;2022-08-19T14:32:37;10.07;;;9.17;;
3171;SDS011;1597;51.572;6.992;2022-08-19T14:35:03;12.13;;;10.97;;
3171;SDS011;1597;51.572;6.992;2022-08-19T14:37:33;17.63;;;10.80;;
3171;SDS011;1597;51.572;6.992;2022-08-19T14:40:00;11.87;;;10.70;;
3171;SDS011;1597;51.572;6.992;2022-08-19T14:42:28;13.53;;;11.70;;
3171;SDS011;1597;51.572;6.992;2022-08-19T14:44:57;14.80;;;13.40;;
3171;SDS011;1597;51.572;6.992;2022-08-19T14:47:24;16.23;;;13.50;;
3171;SDS011;1597;51.572;6.992;2022-08-19T14:49:50;16.07;;;14.47;;
3171;SDS011;1597;51.572;6.992;2022-08-19T14:52:16;14.33;;;13.00;;
3171;SDS011;1597;51.572;6.992;2022-08-19T14:54:42;17.10;;;15.40;;
3171;SDS011;1597;51.572;6.992;2022-08-19T14:57:11;15.80;;;14.20;;
3171;SDS011;1597;51.572;6.992;2022-08-19T14:59:40;14.33;;;12.87;;
3171;SDS011;1597;51.572;6.992;2022-08-19T15:02:09;13.63;;;12.10;;
3171;SDS011;1597;51.572;6.992;2022-08-19T15:04:36;14.20;;;12.80;;
3171;SDS011;1597;51.572;6.992;2022-08-19T15:07:02;15.40;;;12.80;;
3171;SDS011;1597;51.572;6.992;2022-08-19T15:09:30;15.10;;;13.70;;
3171;SDS011;1597;51.572;6.992;2022-08-19T15:11:57;13.93;;;12.47;;
3171;SDS011;1597;51.572;6.992;2022-08-19T15:14:25;12.93;;;11.67;;
3171;SDS011;1597;51.572;6.992;2022-08-19T15:16:51;10.87;;;9.77;;